createdAt,value
2023-04-18T00:08:58.558Z,8
2023-04-18T00:19:00.185Z,7.9
2023-04-18T00:29:02.840Z,7.7
2023-04-18T00:39:05.300Z,7.7
2023-04-18T00:49:07.399Z,7.5
2023-04-18T01:09:11.583Z,7.2
2023-04-18T01:19:13.867Z,7.1
2023-04-18T01:29:15.677Z,7.1
2023-04-18T01:39:18.328Z,7.2
2023-04-18T01:49:20.692Z,7.2
2023-04-18T01:59:23.178Z,7.3
2023-04-18T02:09:25.294Z,7.3
2023-04-18T02:19:27.504Z,7.1
2023-04-18T02:29:30.150Z,7
2023-04-18T02:49:35.304Z,6.8
2023-04-18T02:59:37.048Z,6.7
2023-04-18T03:09:39.493Z,6.8
2023-04-18T03:19:41.657Z,6.9
2023-04-18T03:29:43.896Z,7
2023-04-18T03:39:46.095Z,7.1
2023-04-18T03:49:48.083Z,7.1
2023-04-18T03:59:50.535Z,7.1
2023-04-18T04:09:52.722Z,7.2
2023-04-18T04:19:54.459Z,7.2
2023-04-18T04:29:57.087Z,7.3
2023-04-18T04:39:58.985Z,7.3
2023-04-18T04:50:01.446Z,7.3
2023-04-18T05:00:03.672Z,7.3
2023-04-18T05:10:05.934Z,7.3
2023-04-18T05:20:08.256Z,7.4
2023-04-18T05:30:10.389Z,7.5
2023-04-18T05:40:12.597Z,7.6
2023-04-18T05:50:14.881Z,7.9
2023-04-18T06:00:17.392Z,7.9
2023-04-18T06:10:19.681Z,8
2023-04-18T06:20:21.955Z,7.6
2023-04-18T06:30:24.376Z,7.4
2023-04-18T06:50:35.587Z,7.5
2023-04-18T07:00:38.166Z,7.6
2023-04-18T07:10:40.295Z,7.8
2023-04-18T07:20:42.779Z,7.9
2023-04-18T08:00:52.077Z,8.3
2023-04-18T08:30:58.350Z,8.7
2023-04-18T08:41:00.962Z,8.7
2023-04-18T09:01:04.364Z,8.7
2023-04-18T09:21:08.730Z,8.9
2023-04-18T10:01:17.133Z,9.5
2023-04-18T10:21:21.124Z,9.9
2023-04-18T10:41:25.871Z,10.2
2023-04-18T11:01:31.955Z,10.6
2023-04-18T11:51:40.999Z,11.1
2023-04-18T12:01:43.262Z,11.3
2023-04-18T12:11:45.221Z,11.4
2023-04-18T12:21:47.774Z,11.6
2023-04-18T12:31:49.478Z,11.8
2023-04-18T12:41:51.656Z,11.9
2023-04-18T12:51:53.723Z,11.9
2023-04-18T13:01:56.345Z,11.9
2023-04-18T13:11:58.675Z,12.1
2023-04-18T13:32:03.283Z,13
2023-04-18T13:42:05.084Z,13.4
2023-04-18T13:52:06.980Z,13.7
2023-04-18T14:12:11.820Z,14.1
2023-04-18T14:22:13.717Z,13.7
2023-04-18T14:32:15.952Z,13.7
2023-04-18T14:42:18.360Z,13.7
2023-04-18T14:52:20.909Z,13.5
2023-04-18T15:02:23.439Z,13.4
2023-04-18T15:12:25.805Z,13.4
2023-04-18T15:22:28.177Z,13.4
2023-04-18T15:32:29.918Z,13.4
2023-04-18T15:42:32.387Z,13.6
2023-04-18T15:52:34.207Z,13.7
2023-04-18T16:02:36.813Z,13.8
2023-04-18T16:22:41.148Z,13.9
2023-04-18T16:32:43.038Z,13.8
2023-04-18T16:42:45.036Z,13.7
2023-04-18T17:02:49.545Z,13.7
2023-04-18T17:22:53.182Z,13.1
2023-04-18T17:42:56.849Z,12.7
2023-04-18T18:03:00.908Z,12.3
2023-04-18T18:23:05.510Z,12
2023-04-18T21:33:46.514Z,10
2023-04-18T21:53:51.208Z,10.2
2023-04-18T22:03:53.644Z,10.3
2023-04-18T22:13:55.312Z,10.3
2023-04-18T22:23:57.437Z,10.4
2023-04-18T22:54:03.416Z,10.5
2023-04-18T23:14:07.595Z,10.7
2023-04-18T23:34:11.339Z,10.8
